createdAt,value
2017-10-21T00:00:05.898Z,1006.78
2017-10-21T00:00:14.031Z,1006.80
2017-10-21T00:00:22.176Z,1006.82
2017-10-21T00:00:30.316Z,1006.84
2017-10-21T00:00:38.451Z,1006.84
2017-10-21T00:00:46.574Z,1006.75
2017-10-21T00:00:56.326Z,1006.87
2017-10-21T00:01:04.471Z,1006.78
2017-10-21T00:01:19.353Z,1006.76
2017-10-21T00:01:28.172Z,1006.82
2017-10-21T00:01:36.294Z,1006.80
2017-10-21T00:01:44.432Z,1006.79
2017-10-21T00:01:52.562Z,1006.77
2017-10-21T00:02:00.706Z,1006.82
2017-10-21T00:02:08.841Z,1006.88
2017-10-21T00:02:18.582Z,1006.87
2017-10-21T00:02:26.714Z,1006.88
2017-10-21T00:02:34.891Z,1006.88
2017-10-21T00:02:42.998Z,1006.83
2017-10-21T00:02:51.129Z,1006.83
2017-10-21T00:02:59.262Z,1006.87
2017-10-21T00:03:07.398Z,1006.83
2017-10-21T00:03:15.546Z,1006.87
2017-10-21T00:03:23.698Z,1006.96
2017-10-21T00:03:31.826Z,1006.92
2017-10-21T00:03:39.962Z,1006.89
2017-10-21T00:03:48.085Z,1006.86
2017-10-21T00:03:56.217Z,1006.86
2017-10-21T00:04:04.362Z,1006.88
2017-10-21T00:04:12.501Z,1006.97
2017-10-21T00:04:20.646Z,1006.87
2017-10-21T00:04:28.777Z,1006.88
2017-10-21T00:04:36.914Z,1006.93
2017-10-21T00:04:45.044Z,1006.87
2017-10-21T00:04:53.185Z,1006.89
2017-10-21T00:05:01.338Z,1006.87
2017-10-21T00:05:09.653Z,1006.87
2017-10-21T00:05:17.603Z,1006.96
2017-10-21T00:05:25.745Z,1006.88
2017-10-21T00:05:33.873Z,1006.87
2017-10-21T00:05:42.011Z,1006.87
2017-10-21T00:05:50.161Z,1006.88
2017-10-21T00:05:58.307Z,1006.92
2017-10-21T00:06:06.427Z,1006.91
2017-10-21T00:06:14.565Z,1006.87
2017-10-21T00:06:22.698Z,1006.89
2017-10-21T00:06:30.838Z,1006.94
2017-10-21T00:06:38.995Z,1006.86
2017-10-21T00:06:47.121Z,1006.95
2017-10-21T00:06:55.261Z,1006.95
2017-10-21T00:07:03.387Z,1006.95
2017-10-21T00:07:11.525Z,1006.84
2017-10-21T00:07:19.668Z,1006.97
2017-10-21T00:07:27.802Z,1006.89
2017-10-21T00:07:35.970Z,1006.93
2017-10-21T00:07:44.075Z,1006.89
2017-10-21T00:07:52.209Z,1006.95
2017-10-21T00:08:00.354Z,1006.89
2017-10-21T00:08:08.490Z,1006.86
2017-10-21T00:08:16.631Z,1006.84
2017-10-21T00:08:24.766Z,1006.88
2017-10-21T00:08:32.909Z,1006.90
2017-10-21T00:08:41.041Z,1006.89
2017-10-21T00:08:49.175Z,1006.91
2017-10-21T00:08:57.314Z,1006.94
2017-10-21T00:09:05.461Z,1006.85
2017-10-21T00:09:13.629Z,1006.93
2017-10-21T00:09:21.733Z,1006.95
2017-10-21T00:09:29.873Z,1006.93
2017-10-21T00:09:38.001Z,1006.86
2017-10-21T00:09:46.140Z,1006.86
2017-10-21T00:09:54.286Z,1006.90
2017-10-21T00:10:02.422Z,1006.91
2017-10-21T00:10:10.562Z,1006.92
2017-10-21T00:10:18.713Z,1006.93
2017-10-21T00:10:26.825Z,1006.93
2017-10-21T00:10:34.961Z,1006.89
2017-10-21T00:10:43.104Z,1006.88
2017-10-21T00:10:51.246Z,1006.87
2017-10-21T00:10:59.387Z,1006.90
2017-10-21T00:11:07.518Z,1006.83
2017-10-21T00:11:15.650Z,1006.83
2017-10-21T00:11:23.785Z,1006.88
2017-10-21T00:11:31.928Z,1006.87
2017-10-21T00:11:40.071Z,1006.93
2017-10-21T00:11:48.202Z,1006.82
2017-10-21T00:11:56.352Z,1006.91
2017-10-21T00:12:04.469Z,1006.84
2017-10-21T00:12:12.614Z,1006.89
2017-10-21T00:12:20.749Z,1006.92
2017-10-21T00:12:29.037Z,1006.84
2017-10-21T00:12:37.050Z,1006.90
2017-10-21T00:12:45.166Z,1006.86
2017-10-21T00:12:53.297Z,1006.91
2017-10-21T00:13:01.430Z,1006.85
2017-10-21T00:13:09.583Z,1006.89
2017-10-21T00:13:17.716Z,1006.92
2017-10-21T00:13:25.849Z,1006.91
2017-10-21T00:13:34.034Z,1006.83
2017-10-21T00:13:42.125Z,1006.82
2017-10-21T00:13:50.257Z,1006.89
2017-10-21T00:13:58.406Z,1006.83
2017-10-21T00:14:06.541Z,1006.87
2017-10-21T00:14:14.675Z,1006.86
2017-10-21T00:14:22.809Z,1006.88
2017-10-21T00:14:30.954Z,1006.89
2017-10-21T00:14:39.090Z,1006.85
2017-10-21T00:14:47.234Z,1006.89
2017-10-21T00:14:55.361Z,1006.84
2017-10-21T00:15:03.506Z,1006.91
2017-10-21T00:15:11.638Z,1006.83
2017-10-21T00:15:19.774Z,1006.84
2017-10-21T00:15:27.922Z,1006.88
2017-10-21T00:15:36.251Z,1006.84
2017-10-21T00:15:44.194Z,1006.86
2017-10-21T00:15:52.324Z,1006.82
2017-10-21T00:16:00.465Z,1006.87
2017-10-21T00:16:08.594Z,1006.86
2017-10-21T00:16:16.735Z,1006.84
2017-10-21T00:16:24.874Z,1006.88
2017-10-21T00:16:33.030Z,1006.84
2017-10-21T00:16:41.144Z,1006.86
2017-10-21T00:16:55.045Z,1006.77
2017-10-21T00:17:03.267Z,1006.88
2017-10-21T00:17:11.390Z,1006.84
2017-10-21T00:17:19.527Z,1006.85
2017-10-21T00:17:27.675Z,1006.87
2017-10-21T00:17:35.811Z,1006.87
2017-10-21T00:17:43.974Z,1006.87
2017-10-21T00:17:52.081Z,1006.86
2017-10-21T00:18:00.223Z,1006.94
2017-10-21T00:18:08.563Z,1006.85
2017-10-21T00:18:16.483Z,1006.88
2017-10-21T00:18:24.642Z,1006.87
2017-10-21T00:18:32.757Z,1006.84
2017-10-21T00:18:40.909Z,1006.84
2017-10-21T00:18:49.042Z,1006.87
2017-10-21T00:18:57.174Z,1006.92
2017-10-21T00:19:05.316Z,1006.84
2017-10-21T00:19:13.464Z,1006.84
2017-10-21T00:19:21.596Z,1006.87
2017-10-21T00:19:29.925Z,1006.84
2017-10-21T00:19:37.876Z,1006.87
2017-10-21T00:19:52.415Z,1006.90
2017-10-21T00:20:02.139Z,1006.88
2017-10-21T00:20:10.286Z,1006.92
2017-10-21T00:20:18.414Z,1006.83
2017-10-21T00:20:26.552Z,1006.89
2017-10-21T00:20:34.690Z,1006.86
2017-10-21T00:20:44.421Z,1006.83
2017-10-21T00:20:54.187Z,1006.86
2017-10-21T00:21:02.303Z,1006.88
2017-10-21T00:21:10.426Z,1006.84
2017-10-21T00:21:18.578Z,1006.81
2017-10-21T00:21:26.711Z,1006.87
2017-10-21T00:21:34.856Z,1006.82
2017-10-21T00:21:43.010Z,1006.82
2017-10-21T00:21:51.121Z,1006.85
2017-10-21T00:21:59.257Z,1006.85
2017-10-21T00:22:07.390Z,1006.85
2017-10-21T00:22:15.528Z,1006.84
2017-10-21T00:22:23.674Z,1006.85
2017-10-21T00:22:31.818Z,1006.91
2017-10-21T00:22:39.954Z,1006.80
2017-10-21T00:22:48.110Z,1006.87
2017-10-21T00:22:56.217Z,1006.87
2017-10-21T00:23:04.362Z,1006.88
2017-10-21T00:23:12.502Z,1006.83
2017-10-21T00:23:20.640Z,1006.84
2017-10-21T00:23:28.774Z,1006.84
2017-10-21T00:23:36.917Z,1006.83
2017-10-21T00:23:45.058Z,1006.77
2017-10-21T00:23:53.182Z,1006.85
2017-10-21T00:24:01.356Z,1006.81
2017-10-21T00:24:09.462Z,1006.83
2017-10-21T00:24:17.602Z,1006.86
2017-10-21T00:24:25.749Z,1006.85
2017-10-21T00:24:33.875Z,1006.77
2017-10-21T00:24:42.006Z,1006.85
2017-10-21T00:24:50.158Z,1006.77
2017-10-21T00:24:58.291Z,1006.88
2017-10-21T00:25:06.418Z,1006.79
2017-10-21T00:25:14.562Z,1006.82
2017-10-21T00:25:22.697Z,1006.92
2017-10-21T00:25:30.842Z,1006.86
2017-10-21T00:25:38.965Z,1006.82
2017-10-21T00:25:47.121Z,1006.80
2017-10-21T00:26:01.654Z,1006.87
2017-10-21T00:26:09.783Z,1006.84
2017-10-21T00:26:17.942Z,1006.84
2017-10-21T00:26:26.250Z,1006.85
2017-10-21T00:26:34.198Z,1006.86
2017-10-21T00:26:42.334Z,1006.91
2017-10-21T00:26:50.473Z,1006.87
2017-10-21T00:26:58.612Z,1006.78
2017-10-21T00:27:06.759Z,1006.84
2017-10-21T00:27:14.890Z,1006.86
2017-10-21T00:27:23.018Z,1006.82
2017-10-21T00:27:31.161Z,1006.83
2017-10-21T00:27:39.298Z,1006.85
2017-10-21T00:27:47.437Z,1006.86
2017-10-21T00:27:55.602Z,1006.78
2017-10-21T00:28:03.719Z,1006.84
2017-10-21T00:28:11.846Z,1006.83
2017-10-21T00:28:20.178Z,1006.87
2017-10-21T00:28:28.114Z,1006.74
2017-10-21T00:28:36.253Z,1006.87
2017-10-21T00:28:44.423Z,1006.84
2017-10-21T00:28:52.542Z,1006.78
2017-10-21T00:29:00.669Z,1006.83
2017-10-21T00:29:08.803Z,1006.82
2017-10-21T00:29:16.945Z,1006.82
2017-10-21T00:29:25.077Z,1006.82
2017-10-21T00:29:33.234Z,1006.73
2017-10-21T00:29:41.366Z,1006.85
2017-10-21T00:29:49.682Z,1006.79
2017-10-21T00:29:57.637Z,1006.80
2017-10-21T00:30:05.774Z,1006.79
2017-10-21T00:30:13.910Z,1006.76
2017-10-21T00:30:25.805Z,1006.76
2017-10-21T00:30:34.400Z,1006.79
2017-10-21T00:30:42.554Z,1006.73
2017-10-21T00:30:50.684Z,1006.77
2017-10-21T00:30:58.827Z,1006.76
2017-10-21T00:31:06.966Z,1006.82
2017-10-21T00:31:15.099Z,1006.81
2017-10-21T00:31:23.230Z,1006.78
2017-10-21T00:31:31.366Z,1006.78
2017-10-21T00:31:39.501Z,1006.81
2017-10-21T00:31:47.645Z,1006.76
2017-10-21T00:31:55.795Z,1006.77
2017-10-21T00:32:03.913Z,1006.72
2017-10-21T00:32:12.061Z,1006.76
2017-10-21T00:32:20.193Z,1006.73
2017-10-21T00:32:28.339Z,1006.74
2017-10-21T00:32:36.475Z,1006.74
2017-10-21T00:32:44.614Z,1006.83
2017-10-21T00:32:52.750Z,1006.81
2017-10-21T00:33:00.910Z,1006.74
2017-10-21T00:33:09.017Z,1006.74
2017-10-21T00:33:17.154Z,1006.78
2017-10-21T00:33:25.297Z,1006.82
2017-10-21T00:33:33.447Z,1006.71
2017-10-21T00:33:41.573Z,1006.75
2017-10-21T00:33:49.702Z,1006.83
2017-10-21T00:33:57.846Z,1006.74
2017-10-21T00:34:05.986Z,1006.78
2017-10-21T00:34:14.127Z,1006.84
2017-10-21T00:34:22.266Z,1006.78
2017-10-21T00:34:30.398Z,1006.79
2017-10-21T00:34:38.529Z,1006.78
2017-10-21T00:34:46.666Z,1006.78
2017-10-21T00:34:54.818Z,1006.76
2017-10-21T00:35:02.957Z,1006.76
2017-10-21T00:35:11.092Z,1006.69
2017-10-21T00:35:19.239Z,1006.78
2017-10-21T00:35:27.350Z,1006.78
2017-10-21T00:35:35.489Z,1006.74
2017-10-21T00:35:43.631Z,1006.75
2017-10-21T00:35:51.773Z,1006.73
2017-10-21T00:35:59.910Z,1006.80
2017-10-21T00:36:08.049Z,1006.76
2017-10-21T00:36:16.182Z,1006.80
2017-10-21T00:36:24.309Z,1006.74
2017-10-21T00:36:32.449Z,1006.71
2017-10-21T00:36:40.594Z,1006.83
2017-10-21T00:36:48.729Z,1006.78
2017-10-21T00:36:56.875Z,1006.73
2017-10-21T00:37:05.005Z,1006.75
2017-10-21T00:37:13.145Z,1006.78
2017-10-21T00:37:22.882Z,1006.76
2017-10-21T00:37:31.019Z,1006.71
2017-10-21T00:37:39.155Z,1006.71
2017-10-21T00:37:47.304Z,1006.71
2017-10-21T00:37:55.436Z,1006.73
2017-10-21T00:38:03.598Z,1006.76
2017-10-21T00:38:11.706Z,1006.71
2017-10-21T00:38:19.834Z,1006.73
2017-10-21T00:38:27.978Z,1006.78
2017-10-21T00:38:36.128Z,1006.69
2017-10-21T00:38:44.259Z,1006.73
2017-10-21T00:38:52.398Z,1006.68
2017-10-21T00:39:00.530Z,1006.72
2017-10-21T00:39:08.777Z,1006.80
2017-10-21T00:39:16.797Z,1006.74
2017-10-21T00:39:24.938Z,1006.75
2017-10-21T00:39:33.089Z,1006.80
2017-10-21T00:39:41.226Z,1006.69
2017-10-21T00:39:49.358Z,1006.67
2017-10-21T00:39:57.485Z,1006.68
2017-10-21T00:40:05.622Z,1006.69
2017-10-21T00:40:13.763Z,1006.69
2017-10-21T00:40:21.925Z,1006.72
2017-10-21T00:40:30.047Z,1006.67
2017-10-21T00:40:38.186Z,1006.70
2017-10-21T00:40:46.320Z,1006.68
2017-10-21T00:40:54.449Z,1006.70
2017-10-21T00:41:02.594Z,1006.69
2017-10-21T00:41:10.789Z,1006.72
2017-10-21T00:41:18.894Z,1006.65
2017-10-21T00:41:27.001Z,1006.67
2017-10-21T00:41:35.138Z,1006.72
2017-10-21T00:41:43.278Z,1006.63
2017-10-21T00:41:51.414Z,1006.73
2017-10-21T00:41:59.554Z,1006.72
2017-10-21T00:42:07.698Z,1006.66
2017-10-21T00:42:15.825Z,1006.70
2017-10-21T00:42:23.970Z,1006.71
2017-10-21T00:42:32.100Z,1006.66
2017-10-21T00:42:40.233Z,1006.63
2017-10-21T00:42:48.383Z,1006.64
2017-10-21T00:42:56.529Z,1006.67
2017-10-21T00:43:04.666Z,1006.64
2017-10-21T00:43:12.782Z,1006.67
2017-10-21T00:43:20.924Z,1006.68
2017-10-21T00:43:29.070Z,1006.63
2017-10-21T00:43:37.206Z,1006.68
2017-10-21T00:43:45.347Z,1006.61
2017-10-21T00:43:53.487Z,1006.68
2017-10-21T00:44:01.611Z,1006.73
2017-10-21T00:44:09.750Z,1006.67
2017-10-21T00:44:17.890Z,1006.66
2017-10-21T00:44:26.021Z,1006.65
2017-10-21T00:44:34.162Z,1006.62
2017-10-21T00:44:42.310Z,1006.60
2017-10-21T00:44:50.440Z,1006.62
2017-10-21T00:44:58.574Z,1006.56
2017-10-21T00:45:06.710Z,1006.57
2017-10-21T00:45:14.850Z,1006.63
2017-10-21T00:45:22.985Z,1006.63
2017-10-21T00:45:31.139Z,1006.67
2017-10-21T00:45:39.253Z,1006.62
2017-10-21T00:45:47.394Z,1006.68
2017-10-21T00:45:55.537Z,1006.61
2017-10-21T00:46:03.674Z,1006.57
2017-10-21T00:46:11.998Z,1006.57
2017-10-21T00:46:19.954Z,1006.63
2017-10-21T00:46:28.090Z,1006.62
2017-10-21T00:46:36.225Z,1006.51
2017-10-21T00:46:44.365Z,1006.59
2017-10-21T00:46:52.500Z,1006.53
2017-10-21T00:47:00.678Z,1006.61
2017-10-21T00:47:08.775Z,1006.62
2017-10-21T00:47:16.918Z,1006.69
2017-10-21T00:47:25.043Z,1006.62
2017-10-21T00:47:33.187Z,1006.63
2017-10-21T00:47:41.322Z,1006.59
2017-10-21T00:47:49.471Z,1006.62
2017-10-21T00:47:57.602Z,1006.58
2017-10-21T00:48:05.746Z,1006.61
2017-10-21T00:48:13.877Z,1006.61
2017-10-21T00:48:22.020Z,1006.57
2017-10-21T00:48:30.154Z,1006.60
2017-10-21T00:48:38.478Z,1006.57
2017-10-21T00:48:46.440Z,1006.59
2017-10-21T00:48:54.553Z,1006.56
2017-10-21T00:49:02.681Z,1006.57
2017-10-21T00:49:10.830Z,1006.63
2017-10-21T00:49:18.971Z,1006.56
2017-10-21T00:49:27.136Z,1006.59
2017-10-21T00:49:35.250Z,1006.62
2017-10-21T00:49:43.381Z,1006.56
2017-10-21T00:49:51.521Z,1006.54
2017-10-21T00:49:59.666Z,1006.56
2017-10-21T00:50:07.786Z,1006.55
2017-10-21T00:50:23.681Z,1006.56
2017-10-21T00:50:31.494Z,1006.52
2017-10-21T00:50:39.628Z,1006.55
2017-10-21T00:50:47.786Z,1006.53
2017-10-21T00:50:55.910Z,1006.55
2017-10-21T00:51:04.048Z,1006.55
2017-10-21T00:51:12.174Z,1006.54
2017-10-21T00:51:20.318Z,1006.50
2017-10-21T00:51:28.455Z,1006.54
2017-10-21T00:51:36.606Z,1006.45
2017-10-21T00:51:44.743Z,1006.48
2017-10-21T00:51:52.869Z,1006.52
2017-10-21T00:52:01.009Z,1006.47
2017-10-21T00:52:09.147Z,1006.49
2017-10-21T00:52:17.289Z,1006.49
2017-10-21T00:52:25.433Z,1006.45
2017-10-21T00:52:33.554Z,1006.54
2017-10-21T00:52:41.685Z,1006.53
2017-10-21T00:52:49.844Z,1006.48
2017-10-21T00:52:57.981Z,1006.47
2017-10-21T00:53:06.110Z,1006.52
2017-10-21T00:53:14.278Z,1006.46
2017-10-21T00:53:22.389Z,1006.47
2017-10-21T00:53:30.523Z,1006.53
2017-10-21T00:53:38.650Z,1006.55
2017-10-21T00:53:46.807Z,1006.51
2017-10-21T00:53:54.941Z,1006.45
2017-10-21T00:54:03.078Z,1006.43
2017-10-21T00:54:11.215Z,1006.51
2017-10-21T00:54:19.347Z,1006.47
2017-10-21T00:54:27.477Z,1006.45
2017-10-21T00:54:35.626Z,1006.53
2017-10-21T00:54:56.913Z,1006.43
2017-10-21T00:55:05.735Z,1006.51
2017-10-21T00:55:13.869Z,1006.51
2017-10-21T00:55:22.002Z,1006.50
2017-10-21T00:55:30.130Z,1006.43
2017-10-21T00:55:38.278Z,1006.43
2017-10-21T00:55:46.402Z,1006.52
2017-10-21T00:55:54.613Z,1006.51
2017-10-21T00:56:02.682Z,1006.49
2017-10-21T00:56:10.824Z,1006.45
2017-10-21T00:56:18.955Z,1006.58
2017-10-21T00:56:27.093Z,1006.52
2017-10-21T00:56:35.238Z,1006.50
2017-10-21T00:56:43.374Z,1006.52
2017-10-21T00:56:51.525Z,1006.48
2017-10-21T00:56:59.660Z,1006.52
2017-10-21T00:57:07.782Z,1006.50
2017-10-21T00:57:15.914Z,1006.49
2017-10-21T00:57:24.066Z,1006.51
2017-10-21T00:57:32.386Z,1006.57
2017-10-21T00:57:40.345Z,1006.49
2017-10-21T00:57:48.484Z,1006.53
2017-10-21T00:57:58.212Z,1006.58
2017-10-21T00:58:06.374Z,1006.47
2017-10-21T00:58:14.515Z,1006.59
2017-10-21T00:58:22.632Z,1006.54
2017-10-21T00:58:30.758Z,1006.57
2017-10-21T00:58:38.890Z,1006.52
2017-10-21T00:58:47.026Z,1006.53
2017-10-21T00:58:55.191Z,1006.55
2017-10-21T00:59:03.322Z,1006.57
2017-10-21T00:59:11.467Z,1006.55
2017-10-21T00:59:19.581Z,1006.62
2017-10-21T00:59:27.715Z,1006.57
2017-10-21T00:59:35.854Z,1006.58
2017-10-21T00:59:43.998Z,1006.58
2017-10-21T00:59:52.138Z,1006.54
2017-10-21T01:00:00.265Z,1006.59
2017-10-21T01:00:08.423Z,1006.53
2017-10-21T01:00:16.538Z,1006.55
2017-10-21T01:00:24.670Z,1006.52
2017-10-21T01:00:32.822Z,1006.57
2017-10-21T01:00:40.954Z,1006.54
2017-10-21T01:00:49.095Z,1006.65
2017-10-21T01:00:57.227Z,1006.54
2017-10-21T01:01:05.371Z,1006.60
2017-10-21T01:01:13.494Z,1006.62
2017-10-21T01:01:21.672Z,1006.64
2017-10-21T01:01:29.778Z,1006.58
2017-10-21T01:01:37.929Z,1006.55
2017-10-21T01:01:46.050Z,1006.58
2017-10-21T01:01:54.190Z,1006.63
2017-10-21T01:02:02.327Z,1006.61
2017-10-21T01:02:12.275Z,1006.67
2017-10-21T01:02:20.198Z,1006.57
2017-10-21T01:02:28.342Z,1006.67
2017-10-21T01:02:36.489Z,1006.57
2017-10-21T01:02:44.618Z,1006.55
2017-10-21T01:02:52.747Z,1006.57
2017-10-21T01:03:06.653Z,1006.61
2017-10-21T01:03:14.878Z,1006.68
2017-10-21T01:03:23.011Z,1006.56
2017-10-21T01:03:31.142Z,1006.57
2017-10-21T01:03:40.866Z,1006.57
2017-10-21T01:03:49.009Z,1006.59
2017-10-21T01:04:01.945Z,1006.61
2017-10-21T01:04:11.686Z,1006.60
2017-10-21T01:04:19.833Z,1006.61
2017-10-21T01:04:27.963Z,1006.54
2017-10-21T01:04:36.183Z,1006.59
2017-10-21T01:04:44.225Z,1006.58
2017-10-21T01:04:52.370Z,1006.53
2017-10-21T01:05:00.501Z,1006.54
2017-10-21T01:05:10.239Z,1006.54
2017-10-21T01:05:18.381Z,1006.52
2017-10-21T01:05:26.513Z,1006.58
2017-10-21T01:05:41.566Z,1006.55
2017-10-21T01:05:50.261Z,1006.59
2017-10-21T01:05:58.366Z,1006.50
2017-10-21T01:06:06.497Z,1006.57
2017-10-21T01:06:14.652Z,1006.54
2017-10-21T01:06:22.778Z,1006.63
2017-10-21T01:06:30.931Z,1006.58
2017-10-21T01:06:39.046Z,1006.55
2017-10-21T01:06:47.194Z,1006.54
2017-10-21T01:06:55.323Z,1006.58
2017-10-21T01:07:03.465Z,1006.58
2017-10-21T01:07:11.604Z,1006.53
2017-10-21T01:07:19.744Z,1006.56
2017-10-21T01:07:27.873Z,1006.55
2017-10-21T01:07:36.006Z,1006.53
2017-10-21T01:07:44.145Z,1006.57
2017-10-21T01:07:52.306Z,1006.53
2017-10-21T01:08:00.425Z,1006.55
2017-10-21T01:08:08.558Z,1006.59
2017-10-21T01:08:16.715Z,1006.59
2017-10-21T01:08:26.430Z,1006.53
2017-10-21T01:08:34.575Z,1006.57
2017-10-21T01:08:42.716Z,1006.56
2017-10-21T01:08:50.841Z,1006.55
2017-10-21T01:08:58.999Z,1006.56
2017-10-21T01:09:07.126Z,1006.53
2017-10-21T01:09:15.265Z,1006.62
2017-10-21T01:09:23.397Z,1006.64
2017-10-21T01:09:31.534Z,1006.53
2017-10-21T01:09:39.675Z,1006.53
2017-10-21T01:09:49.422Z,1006.61
2017-10-21T01:09:57.541Z,1006.61
2017-10-21T01:10:05.885Z,1006.57
2017-10-21T01:10:20.224Z,1006.62
2017-10-21T01:10:29.953Z,1006.63
2017-10-21T01:10:38.094Z,1006.66
2017-10-21T01:10:46.238Z,1006.63
2017-10-21T01:10:54.378Z,1006.66
2017-10-21T01:11:02.524Z,1006.69
2017-10-21T01:11:10.684Z,1006.68
2017-10-21T01:11:18.773Z,1006.64
2017-10-21T01:11:26.924Z,1006.66
2017-10-21T01:11:35.055Z,1006.65
2017-10-21T01:11:43.199Z,1006.66
2017-10-21T01:11:51.347Z,1006.72
2017-10-21T01:11:59.475Z,1006.68
2017-10-21T01:12:07.606Z,1006.66
2017-10-21T01:12:15.738Z,1006.63
2017-10-21T01:12:23.893Z,1006.71
2017-10-21T01:12:32.027Z,1006.69
2017-10-21T01:12:40.169Z,1006.69
2017-10-21T01:12:48.301Z,1006.66
2017-10-21T01:12:56.436Z,1006.70
2017-10-21T01:13:04.576Z,1006.71
2017-10-21T01:13:12.718Z,1006.61
2017-10-21T01:13:20.858Z,1006.66
2017-10-21T01:13:28.996Z,1006.66
2017-10-21T01:13:37.137Z,1006.64
2017-10-21T01:13:45.265Z,1006.71
2017-10-21T01:13:53.395Z,1006.66
2017-10-21T01:14:01.541Z,1006.62
2017-10-21T01:14:09.670Z,1006.66
2017-10-21T01:14:17.815Z,1006.69
2017-10-21T01:14:25.962Z,1006.62
2017-10-21T01:14:34.087Z,1006.66
2017-10-21T01:14:42.230Z,1006.66
2017-10-21T01:14:50.374Z,1006.63
2017-10-21T01:14:58.497Z,1006.66
2017-10-21T01:15:06.650Z,1006.55
2017-10-21T01:15:14.787Z,1006.66
2017-10-21T01:15:22.915Z,1006.62
2017-10-21T01:15:31.054Z,1006.61
2017-10-21T01:15:39.190Z,1006.66
2017-10-21T01:15:47.326Z,1006.64
2017-10-21T01:15:55.469Z,1006.73
2017-10-21T01:16:03.601Z,1006.59
2017-10-21T01:16:11.734Z,1006.59
2017-10-21T01:16:19.866Z,1006.59
2017-10-21T01:16:28.013Z,1006.58
2017-10-21T01:16:36.140Z,1006.66
2017-10-21T01:16:44.317Z,1006.67
2017-10-21T01:16:52.430Z,1006.67
2017-10-21T01:17:00.557Z,1006.55
2017-10-21T01:17:08.695Z,1006.56
2017-10-21T01:17:16.846Z,1006.62
2017-10-21T01:17:26.575Z,1006.71
2017-10-21T01:17:34.709Z,1006.63
2017-10-21T01:17:42.851Z,1006.73
2017-10-21T01:17:50.990Z,1006.68
2017-10-21T01:17:59.140Z,1006.64
2017-10-21T01:18:07.249Z,1006.67
2017-10-21T01:18:15.398Z,1006.66
2017-10-21T01:18:25.168Z,1006.63
2017-10-21T01:18:33.261Z,1006.66
2017-10-21T01:18:41.401Z,1006.62
2017-10-21T01:18:49.538Z,1006.66
2017-10-21T01:18:57.686Z,1006.68
2017-10-21T01:19:05.866Z,1006.64
2017-10-21T01:19:13.965Z,1006.66
2017-10-21T01:19:22.093Z,1006.65
2017-10-21T01:19:30.234Z,1006.63
2017-10-21T01:19:38.378Z,1006.61
2017-10-21T01:19:46.523Z,1006.64
2017-10-21T01:19:59.459Z,1006.61
2017-10-21T01:20:07.592Z,1006.61
2017-10-21T01:20:15.714Z,1006.69
2017-10-21T01:20:23.853Z,1006.63
2017-10-21T01:20:31.993Z,1006.57
2017-10-21T01:20:44.929Z,1006.58
2017-10-21T01:20:53.062Z,1006.61
2017-10-21T01:21:01.199Z,1006.63
2017-10-21T01:21:09.358Z,1006.61
2017-10-21T01:21:17.493Z,1006.61
2017-10-21T01:21:25.609Z,1006.62
2017-10-21T01:21:33.761Z,1006.62
2017-10-21T01:21:41.903Z,1006.66
2017-10-21T01:21:51.634Z,1006.57
2017-10-21T01:21:59.770Z,1006.64
2017-10-21T01:22:07.894Z,1006.65
2017-10-21T01:22:16.058Z,1006.63
2017-10-21T01:22:24.199Z,1006.61
2017-10-21T01:22:33.924Z,1006.63
2017-10-21T01:22:42.086Z,1006.64
2017-10-21T01:22:50.201Z,1006.68
2017-10-21T01:22:58.334Z,1006.61
2017-10-21T01:23:06.466Z,1006.65
2017-10-21T01:23:14.602Z,1006.58
2017-10-21T01:23:22.778Z,1006.56
2017-10-21T01:23:30.908Z,1006.63
2017-10-21T01:23:39.014Z,1006.70
2017-10-21T01:23:47.158Z,1006.59
2017-10-21T01:23:55.294Z,1006.58
2017-10-21T01:24:03.425Z,1006.63
2017-10-21T01:24:11.578Z,1006.60
2017-10-21T01:24:19.706Z,1006.63
2017-10-21T01:24:27.842Z,1006.71
2017-10-21T01:24:37.598Z,1006.64
2017-10-21T01:24:50.490Z,1006.66
2017-10-21T01:24:58.077Z,1006.64
2017-10-21T01:25:06.227Z,1006.64
2017-10-21T01:25:15.966Z,1006.63
2017-10-21T01:25:24.114Z,1006.66
2017-10-21T01:25:32.242Z,1006.64
2017-10-21T01:25:41.974Z,1006.63
2017-10-21T01:25:50.105Z,1006.70
2017-10-21T01:25:58.258Z,1006.60
2017-10-21T01:26:06.381Z,1006.66
2017-10-21T01:26:14.526Z,1006.62
2017-10-21T01:26:22.653Z,1006.62
2017-10-21T01:26:30.803Z,1006.66
2017-10-21T01:26:38.941Z,1006.60
2017-10-21T01:26:48.670Z,1006.61
2017-10-21T01:26:56.806Z,1006.59
2017-10-21T01:27:04.949Z,1006.58
2017-10-21T01:27:13.112Z,1006.60
2017-10-21T01:27:21.222Z,1006.62
2017-10-21T01:27:29.348Z,1006.61
2017-10-21T01:27:37.494Z,1006.65
2017-10-21T01:27:45.631Z,1006.60
2017-10-21T01:27:53.779Z,1006.58
2017-10-21T01:28:01.912Z,1006.55
2017-10-21T01:28:10.051Z,1006.54
2017-10-21T01:28:18.177Z,1006.60
2017-10-21T01:28:26.325Z,1006.57
2017-10-21T01:28:34.475Z,1006.56
2017-10-21T01:28:44.190Z,1006.56
2017-10-21T01:28:52.346Z,1006.60
2017-10-21T01:29:05.271Z,1006.65
2017-10-21T01:29:13.419Z,1006.58
2017-10-21T01:29:21.555Z,1006.59
2017-10-21T01:29:29.694Z,1006.56
2017-10-21T01:29:37.830Z,1006.61
2017-10-21T01:29:45.973Z,1006.61
2017-10-21T01:29:54.098Z,1006.55
2017-10-21T01:30:03.842Z,1006.61
2017-10-21T01:30:11.962Z,1006.63
2017-10-21T01:30:20.117Z,1006.60
2017-10-21T01:30:29.849Z,1006.60
2017-10-21T01:30:37.977Z,1006.52
2017-10-21T01:30:46.138Z,1006.58
2017-10-21T01:30:54.266Z,1006.61
2017-10-21T01:31:02.398Z,1006.61
2017-10-21T01:31:10.529Z,1006.61
2017-10-21T01:31:20.285Z,1006.57
2017-10-21T01:31:28.418Z,1006.57
2017-10-21T01:31:36.545Z,1006.57
2017-10-21T01:31:44.689Z,1006.51
2017-10-21T01:31:52.809Z,1006.58
2017-10-21T01:32:00.973Z,1006.54
2017-10-21T01:32:09.106Z,1006.53
2017-10-21T01:32:17.246Z,1006.60
2017-10-21T01:32:25.370Z,1006.51
2017-10-21T01:32:33.509Z,1006.52
2017-10-21T01:32:41.637Z,1006.53
2017-10-21T01:32:49.802Z,1006.56
2017-10-21T01:32:58.118Z,1006.60
2017-10-21T01:33:06.062Z,1006.58
2017-10-21T01:33:14.197Z,1006.55
2017-10-21T01:33:22.334Z,1006.54
2017-10-21T01:33:30.477Z,1006.48
2017-10-21T01:33:38.654Z,1006.58
2017-10-21T01:33:46.750Z,1006.49
2017-10-21T01:33:54.894Z,1006.55
2017-10-21T01:34:03.030Z,1006.54
2017-10-21T01:34:11.149Z,1006.64
2017-10-21T01:34:19.302Z,1006.55
2017-10-21T01:34:27.449Z,1006.42
2017-10-21T01:34:35.589Z,1006.49
2017-10-21T01:34:43.710Z,1006.52
2017-10-21T01:34:51.845Z,1006.50
2017-10-21T01:34:59.995Z,1006.45
2017-10-21T01:35:08.119Z,1006.50
2017-10-21T01:35:16.257Z,1006.56
2017-10-21T01:35:25.999Z,1006.43
2017-10-21T01:35:35.733Z,1006.55
2017-10-21T01:35:45.462Z,1006.47
2017-10-21T01:35:53.622Z,1006.50
2017-10-21T01:36:01.746Z,1006.47
2017-10-21T01:36:09.879Z,1006.45
2017-10-21T01:36:18.013Z,1006.47
2017-10-21T01:36:27.767Z,1006.47
2017-10-21T01:36:35.890Z,1006.39
2017-10-21T01:36:44.033Z,1006.46
2017-10-21T01:36:52.174Z,1006.45
2017-10-21T01:37:00.301Z,1006.42
2017-10-21T01:37:08.442Z,1006.51
2017-10-21T01:37:16.590Z,1006.45
2017-10-21T01:37:24.713Z,1006.51
2017-10-21T01:37:32.862Z,1006.46
2017-10-21T01:37:41.010Z,1006.45
2017-10-21T01:37:49.126Z,1006.41
2017-10-21T01:37:57.269Z,1006.42
2017-10-21T01:38:05.424Z,1006.42
2017-10-21T01:38:15.154Z,1006.44
2017-10-21T01:38:23.279Z,1006.44
2017-10-21T01:38:31.420Z,1006.46
2017-10-21T01:38:39.599Z,1006.45
2017-10-21T01:38:49.289Z,1006.49
2017-10-21T01:38:57.433Z,1006.43
2017-10-21T01:39:05.581Z,1006.53
2017-10-21T01:39:13.709Z,1006.46
2017-10-21T01:39:21.834Z,1006.50
2017-10-21T01:39:29.990Z,1006.48
2017-10-21T01:39:38.115Z,1006.44
2017-10-21T01:39:46.262Z,1006.45
2017-10-21T01:39:54.394Z,1006.53
2017-10-21T01:40:02.533Z,1006.48
2017-10-21T01:40:10.662Z,1006.51
2017-10-21T01:40:18.814Z,1006.44
2017-10-21T01:40:28.546Z,1006.43
2017-10-21T01:40:36.681Z,1006.47
2017-10-21T01:40:44.813Z,1006.44
2017-10-21T01:40:52.965Z,1006.44